sensor_id;sensor_type;location;lat;lon;timestamp;temperature;humidity
20862;DHT22;10591;52.532;13.348;2023-04-01T00:01:48;9.72;86.87
20862;DHT22;10591;52.532;13.348;2023-04-01T00:04:19;9.62;87.22
20862;DHT22;10591;52.532;13.348;2023-04-01T00:06:50;9.80;87.13
20862;DHT22;10591;52.532;13.348;2023-04-01T00:09:21;9.86;86.41
20862;DHT22;10591;52.532;13.348;2023-04-01T00:11:54;9.80;86.43
20862;DHT22;10591;52.532;13.348;2023-04-01T00:14:26;9.72;86.83
20862;DHT22;10591;52.532;13.348;2023-04-01T00:16:59;9.71;86.98
20862;DHT22;10591;52.532;13.348;2023-04-01T00:19:31;9.79;86.94
20862;DHT22;10591;52.532;13.348;2023-04-01T00:22:02;9.95;86.70
20862;DHT22;10591;52.532;13.348;2023-04-01T00:24:34;9.85;86.61
20862;DHT22;10591;52.532;13.348;2023-04-01T00:27:05;9.78;86.71
20862;DHT22;10591;52.532;13.348;2023-04-01T00:29:37;9.83;86.90
20862;DHT22;10591;52.532;13.348;2023-04-01T00:32:08;9.74;86.74
20862;DHT22;10591;52.532;13.348;2023-04-01T00:34:38;9.78;86.38
20862;DHT22;10591;52.532;13.348;2023-04-01T00:37:09;9.78;86.66
20862;DHT22;10591;52.532;13.348;2023-04-01T00:39:41;9.80;86.55
20862;DHT22;10591;52.532;13.348;2023-04-01T00:42:14;9.96;86.17
20862;DHT22;10591;52.532;13.348;2023-04-01T00:44:53;9.85;86.38
20862;DHT22;10591;52.532;13.348;2023-04-01T00:47:25;9.80;86.16
20862;DHT22;10591;52.532;13.348;2023-04-01T00:49:57;9.71;86.30
20862;DHT22;10591;52.532;13.348;2023-04-01T00:52:27;9.80;86.39
20862;DHT22;10591;52.532;13.348;2023-04-01T00:54:59;9.73;86.69
20862;DHT22;10591;52.532;13.348;2023-04-01T00:57:34;9.93;86.60
20862;DHT22;10591;52.532;13.348;2023-04-01T01:00:10;10.00;86.17
20862;DHT22;10591;52.532;13.348;2023-04-01T01:02:44;9.88;86.32
20862;DHT22;10591;52.532;13.348;2023-04-01T01:05:16;10.05;85.92
20862;DHT22;10591;52.532;13.348;2023-04-01T01:10:32;9.82;86.58
20862;DHT22;10591;52.532;13.348;2023-04-01T01:18:45;9.78;87.12
20862;DHT22;10591;52.532;13.348;2023-04-01T01:21:42;9.80;87.10
20862;DHT22;10591;52.532;13.348;2023-04-01T01:24:28;9.93;87.11
20862;DHT22;10591;52.532;13.348;2023-04-01T01:27:13;9.98;86.20
20862;DHT22;10591;52.532;13.348;2023-04-01T01:35:38;9.76;86.66
20862;DHT22;10591;52.532;13.348;2023-04-01T01:38:21;9.88;86.54
20862;DHT22;10591;52.532;13.348;2023-04-01T01:40:50;9.96;86.98
20862;DHT22;10591;52.532;13.348;2023-04-01T01:43:25;9.73;87.40
20862;DHT22;10591;52.532;13.348;2023-04-01T01:45:59;9.65;87.73
20862;DHT22;10591;52.532;13.348;2023-04-01T01:48:33;9.65;87.95
20862;DHT22;10591;52.532;13.348;2023-04-01T01:51:05;9.76;88.06
20862;DHT22;10591;52.532;13.348;2023-04-01T01:53:36;9.70;87.89
20862;DHT22;10591;52.532;13.348;2023-04-01T01:56:07;9.92;87.43
20862;DHT22;10591;52.532;13.348;2023-04-01T01:58:40;9.78;87.60
20862;DHT22;10591;52.532;13.348;2023-04-01T02:01:14;9.68;87.64
20862;DHT22;10591;52.532;13.348;2023-04-01T02:03:47;9.65;87.63
20862;DHT22;10591;52.532;13.348;2023-04-01T02:06:21;9.80;87.49
20862;DHT22;10591;52.532;13.348;2023-04-01T02:09:02;9.58;88.05
20862;DHT22;10591;52.532;13.348;2023-04-01T02:11:50;9.70;88.10
20862;DHT22;10591;52.532;13.348;2023-04-01T02:14:27;9.65;88.13
20862;DHT22;10591;52.532;13.348;2023-04-01T02:17:02;9.61;88.21
20862;DHT22;10591;52.532;13.348;2023-04-01T02:19:40;9.60;88.25
20862;DHT22;10591;52.532;13.348;2023-04-01T02:22:14;9.71;88.10
20862;DHT22;10591;52.532;13.348;2023-04-01T02:24:48;9.81;87.88
20862;DHT22;10591;52.532;13.348;2023-04-01T02:27:20;9.76;87.95
20862;DHT22;10591;52.532;13.348;2023-04-01T02:29:52;9.79;87.73
20862;DHT22;10591;52.532;13.348;2023-04-01T02:32:25;9.71;87.92
20862;DHT22;10591;52.532;13.348;2023-04-01T02:34:57;9.74;87.79
20862;DHT22;10591;52.532;13.348;2023-04-01T02:37:29;9.69;87.80
20862;DHT22;10591;52.532;13.348;2023-04-01T02:40:04;9.68;87.78
20862;DHT22;10591;52.532;13.348;2023-04-01T02:42:37;9.61;87.76
20862;DHT22;10591;52.532;13.348;2023-04-01T02:45:09;9.66;87.77
20862;DHT22;10591;52.532;13.348;2023-04-01T02:47:39;9.56;87.68
20862;DHT22;10591;52.532;13.348;2023-04-01T02:50:10;9.77;87.66
20862;DHT22;10591;52.532;13.348;2023-04-01T02:52:41;9.62;87.47
20862;DHT22;10591;52.532;13.348;2023-04-01T02:55:11;9.75;87.39
20862;DHT22;10591;52.532;13.348;2023-04-01T02:57:42;9.56;87.20
20862;DHT22;10591;52.532;13.348;2023-04-01T03:00:15;9.61;87.40
20862;DHT22;10591;52.532;13.348;2023-04-01T03:02:46;9.70;87.51
20862;DHT22;10591;52.532;13.348;2023-04-01T03:05:19;9.63;87.51
20862;DHT22;10591;52.532;13.348;2023-04-01T03:07:49;9.63;87.53
20862;DHT22;10591;52.532;13.348;2023-04-01T03:10:20;9.62;87.40
20862;DHT22;10591;52.532;13.348;2023-04-01T03:12:51;9.69;87.51
20862;DHT22;10591;52.532;13.348;2023-04-01T03:15:24;9.71;87.35
20862;DHT22;10591;52.532;13.348;2023-04-01T03:17:55;9.67;87.55
20862;DHT22;10591;52.532;13.348;2023-04-01T03:20:29;9.77;87.32
20862;DHT22;10591;52.532;13.348;2023-04-01T03:22:59;9.90;87.06
20862;DHT22;10591;52.532;13.348;2023-04-01T03:25:33;9.86;86.95
20862;DHT22;10591;52.532;13.348;2023-04-01T03:28:04;9.86;87.05
20862;DHT22;10591;52.532;13.348;2023-04-01T03:30:37;9.92;86.92
20862;DHT22;10591;52.532;13.348;2023-04-01T03:33:07;9.84;87.06
20862;DHT22;10591;52.532;13.348;2023-04-01T03:35:38;9.76;87.25
20862;DHT22;10591;52.532;13.348;2023-04-01T03:38:08;9.88;87.14
20862;DHT22;10591;52.532;13.348;2023-04-01T03:40:44;9.88;86.75
20862;DHT22;10591;52.532;13.348;2023-04-01T03:43:15;9.85;86.40
20862;DHT22;10591;52.532;13.348;2023-04-01T03:45:48;9.90;86.60
20862;DHT22;10591;52.532;13.348;2023-04-01T03:48:19;9.79;86.67
20862;DHT22;10591;52.532;13.348;2023-04-01T03:50:51;9.83;86.60
20862;DHT22;10591;52.532;13.348;2023-04-01T03:53:23;9.87;86.84
20862;DHT22;10591;52.532;13.348;2023-04-01T03:55:54;9.79;86.85
20862;DHT22;10591;52.532;13.348;2023-04-01T03:58:25;9.83;86.78
20862;DHT22;10591;52.532;13.348;2023-04-01T04:00:56;9.86;86.79
20862;DHT22;10591;52.532;13.348;2023-04-01T04:03:27;9.86;86.77
20862;DHT22;10591;52.532;13.348;2023-04-01T04:05:58;10.04;86.42
20862;DHT22;10591;52.532;13.348;2023-04-01T04:08:29;9.94;86.65
20862;DHT22;10591;52.532;13.348;2023-04-01T04:11:00;9.90;86.78
20862;DHT22;10591;52.532;13.348;2023-04-01T04:13:31;9.87;86.73
20862;DHT22;10591;52.532;13.348;2023-04-01T04:16:03;10.00;86.58
20862;DHT22;10591;52.532;13.348;2023-04-01T04:18:33;10.03;86.54
20862;DHT22;10591;52.532;13.348;2023-04-01T04:21:04;10.07;86.45
20862;DHT22;10591;52.532;13.348;2023-04-01T04:23:34;9.92;86.51
20862;DHT22;10591;52.532;13.348;2023-04-01T04:26:09;9.99;86.62
20862;DHT22;10591;52.532;13.348;2023-04-01T04:28:42;10.02;86.54
20862;DHT22;10591;52.532;13.348;2023-04-01T04:31:21;9.96;86.61
20862;DHT22;10591;52.532;13.348;2023-04-01T04:33:55;9.90;86.60
20862;DHT22;10591;52.532;13.348;2023-04-01T04:36:26;9.95;86.70
20862;DHT22;10591;52.532;13.348;2023-04-01T04:38:57;10.00;86.67
20862;DHT22;10591;52.532;13.348;2023-04-01T04:41:33;9.90;86.39
20862;DHT22;10591;52.532;13.348;2023-04-01T04:44:05;10.00;86.48
20862;DHT22;10591;52.532;13.348;2023-04-01T04:46:36;9.94;86.65
20862;DHT22;10591;52.532;13.348;2023-04-01T04:49:08;9.91;86.64
20862;DHT22;10591;52.532;13.348;2023-04-01T04:51:39;9.90;86.62
20862;DHT22;10591;52.532;13.348;2023-04-01T04:54:11;9.98;86.73
20862;DHT22;10591;52.532;13.348;2023-04-01T04:56:42;10.00;86.98
20862;DHT22;10591;52.532;13.348;2023-04-01T04:59:14;9.84;86.86
20862;DHT22;10591;52.532;13.348;2023-04-01T05:01:46;10.04;86.67
20862;DHT22;10591;52.532;13.348;2023-04-01T05:04:17;9.97;87.00
20862;DHT22;10591;52.532;13.348;2023-04-01T05:06:49;9.87;87.02
20862;DHT22;10591;52.532;13.348;2023-04-01T05:09:21;9.98;86.94
20862;DHT22;10591;52.532;13.348;2023-04-01T05:11:52;10.06;86.87
20862;DHT22;10591;52.532;13.348;2023-04-01T05:14:23;9.84;87.20
20862;DHT22;10591;52.532;13.348;2023-04-01T05:16:54;10.00;87.13
20862;DHT22;10591;52.532;13.348;2023-04-01T05:19:24;10.06;87.19
20862;DHT22;10591;52.532;13.348;2023-04-01T05:21:55;9.99;87.35
20862;DHT22;10591;52.532;13.348;2023-04-01T05:24:25;10.06;87.39
20862;DHT22;10591;52.532;13.348;2023-04-01T05:26:56;10.16;87.18
20862;DHT22;10591;52.532;13.348;2023-04-01T05:29:27;10.01;87.31
20862;DHT22;10591;52.532;13.348;2023-04-01T05:31:58;9.98;87.71
20862;DHT22;10591;52.532;13.348;2023-04-01T05:34:28;10.01;87.68
20862;DHT22;10591;52.532;13.348;2023-04-01T05:36:59;10.00;87.58
20862;DHT22;10591;52.532;13.348;2023-04-01T05:39:29;10.02;87.65
20862;DHT22;10591;52.532;13.348;2023-04-01T05:42:00;9.84;87.82
20862;DHT22;10591;52.532;13.348;2023-04-01T05:44:31;10.06;87.71
20862;DHT22;10591;52.532;13.348;2023-04-01T05:47:03;10.03;87.71
20862;DHT22;10591;52.532;13.348;2023-04-01T05:49:34;10.08;87.83
20862;DHT22;10591;52.532;13.348;2023-04-01T05:52:04;10.12;87.52
20862;DHT22;10591;52.532;13.348;2023-04-01T05:54:35;10.22;87.37
20862;DHT22;10591;52.532;13.348;2023-04-01T05:57:06;10.11;87.57
20862;DHT22;10591;52.532;13.348;2023-04-01T05:59:36;10.26;87.24
20862;DHT22;10591;52.532;13.348;2023-04-01T06:02:09;10.40;87.18
20862;DHT22;10591;52.532;13.348;2023-04-01T06:04:40;10.23;87.14
20862;DHT22;10591;52.532;13.348;2023-04-01T06:07:16;10.26;87.26
20862;DHT22;10591;52.532;13.348;2023-04-01T06:09:47;10.19;87.15
20862;DHT22;10591;52.532;13.348;2023-04-01T06:12:40;10.18;87.54
20862;DHT22;10591;52.532;13.348;2023-04-01T06:15:22;10.17;87.49
20862;DHT22;10591;52.532;13.348;2023-04-01T06:23:42;10.12;87.79
20862;DHT22;10591;52.532;13.348;2023-04-01T06:28:58;10.17;87.76
20862;DHT22;10591;52.532;13.348;2023-04-01T06:34:16;10.30;87.52
20862;DHT22;10591;52.532;13.348;2023-04-01T06:39:48;10.40;87.34
20862;DHT22;10591;52.532;13.348;2023-04-01T06:56:27;10.44;86.91
20862;DHT22;10591;52.532;13.348;2023-04-01T06:59:12;10.28;86.86
20862;DHT22;10591;52.532;13.348;2023-04-01T07:09:53;10.50;86.82
20862;DHT22;10591;52.532;13.348;2023-04-01T07:15:25;10.38;87.18
20862;DHT22;10591;52.532;13.348;2023-04-01T07:17:48;10.46;87.28
20862;DHT22;10591;52.532;13.348;2023-04-01T07:20:36;10.48;86.90
20862;DHT22;10591;52.532;13.348;2023-04-01T07:25:52;10.82;86.20
20862;DHT22;10591;52.532;13.348;2023-04-01T07:28:23;10.97;86.12
20862;DHT22;10591;52.532;13.348;2023-04-01T07:33:53;10.95;85.43
20862;DHT22;10591;52.532;13.348;2023-04-01T07:36:42;11.09;84.74
20862;DHT22;10591;52.532;13.348;2023-04-01T07:42:15;11.34;84.57
20862;DHT22;10591;52.532;13.348;2023-04-01T07:45:11;11.11;84.77
20862;DHT22;10591;52.532;13.348;2023-04-01T07:50:34;11.32;84.59
20862;DHT22;10591;52.532;13.348;2023-04-01T07:53:23;11.22;84.10
20862;DHT22;10591;52.532;13.348;2023-04-01T07:56:09;11.29;84.22
20862;DHT22;10591;52.532;13.348;2023-04-01T07:59:07;11.08;84.89
20862;DHT22;10591;52.532;13.348;2023-04-01T08:04:36;11.72;83.89
20862;DHT22;10591;52.532;13.348;2023-04-01T08:07:20;11.22;85.04
20862;DHT22;10591;52.532;13.348;2023-04-01T08:10:08;11.10;85.27
20862;DHT22;10591;52.532;13.348;2023-04-01T08:12:53;11.16;85.74
20862;DHT22;10591;52.532;13.348;2023-04-01T08:15:32;11.24;85.16
20862;DHT22;10591;52.532;13.348;2023-04-01T08:21:03;10.87;85.77
20862;DHT22;10591;52.532;13.348;2023-04-01T08:23:44;10.73;86.20
20862;DHT22;10591;52.532;13.348;2023-04-01T08:26:35;10.72;86.15
20862;DHT22;10591;52.532;13.348;2023-04-01T08:29:17;10.66;86.56
20862;DHT22;10591;52.532;13.348;2023-04-01T08:31:58;10.52;86.45
20862;DHT22;10591;52.532;13.348;2023-04-01T08:34:36;10.18;86.85
20862;DHT22;10591;52.532;13.348;2023-04-01T08:37:17;9.82;87.48
20862;DHT22;10591;52.532;13.348;2023-04-01T08:39:45;9.73;87.70
20862;DHT22;10591;52.532;13.348;2023-04-01T08:48:47;9.61;87.88
20862;DHT22;10591;52.532;13.348;2023-04-01T08:54:17;9.66;88.04
20862;DHT22;10591;52.532;13.348;2023-04-01T09:05:07;9.51;88.22
20862;DHT22;10591;52.532;13.348;2023-04-01T09:13:07;9.58;88.20
20862;DHT22;10591;52.532;13.348;2023-04-01T09:29:37;9.58;86.76
20862;DHT22;10591;52.532;13.348;2023-04-01T09:32:16;9.46;86.65
20862;DHT22;10591;52.532;13.348;2023-04-01T09:54:36;9.55;85.13
20862;DHT22;10591;52.532;13.348;2023-04-01T09:57:10;9.24;85.94
20862;DHT22;10591;52.532;13.348;2023-04-01T10:00:27;9.38;85.69
20862;DHT22;10591;52.532;13.348;2023-04-01T10:02:37;9.24;85.58
20862;DHT22;10591;52.532;13.348;2023-04-01T10:08:12;9.02;86.21
20862;DHT22;10591;52.532;13.348;2023-04-01T10:11:12;9.18;85.94
20862;DHT22;10591;52.532;13.348;2023-04-01T10:16:37;9.17;86.32
20862;DHT22;10591;52.532;13.348;2023-04-01T10:19:44;9.20;85.93
20862;DHT22;10591;52.532;13.348;2023-04-01T10:25:10;9.34;85.80
20862;DHT22;10591;52.532;13.348;2023-04-01T10:41:46;9.27;85.76
20862;DHT22;10591;52.532;13.348;2023-04-01T10:44:38;9.14;86.23
20862;DHT22;10591;52.532;13.348;2023-04-01T10:50:45;9.08;86.64
20862;DHT22;10591;52.532;13.348;2023-04-01T10:56:29;8.85;87.53
20862;DHT22;10591;52.532;13.348;2023-04-01T11:13:52;8.72;87.85
20862;DHT22;10591;52.532;13.348;2023-04-01T11:16:42;8.88;88.07
20862;DHT22;10591;52.532;13.348;2023-04-01T11:22:35;8.71;87.58
20862;DHT22;10591;52.532;13.348;2023-04-01T11:25:17;8.80;88.33
20862;DHT22;10591;52.532;13.348;2023-04-01T11:28:05;8.53;88.44
20862;DHT22;10591;52.532;13.348;2023-04-01T11:31:04;8.70;89.19
20862;DHT22;10591;52.532;13.348;2023-04-01T11:33:38;8.66;89.13
20862;DHT22;10591;52.532;13.348;2023-04-01T11:38:54;8.64;88.78
20862;DHT22;10591;52.532;13.348;2023-04-01T11:49:52;8.69;88.92
20862;DHT22;10591;52.532;13.348;2023-04-01T12:03:50;8.33;88.02
20862;DHT22;10591;52.532;13.348;2023-04-01T12:06:35;8.46;88.41
20862;DHT22;10591;52.532;13.348;2023-04-01T12:20:28;8.30;88.58
20862;DHT22;10591;52.532;13.348;2023-04-01T12:23:21;8.33;88.43
20862;DHT22;10591;52.532;13.348;2023-04-01T12:31:37;8.04;87.91
20862;DHT22;10591;52.532;13.348;2023-04-01T12:45:28;8.03;88.13
20862;DHT22;10591;52.532;13.348;2023-04-01T12:51:01;7.85;88.87
20862;DHT22;10591;52.532;13.348;2023-04-01T12:56:39;8.00;88.62
20862;DHT22;10591;52.532;13.348;2023-04-01T13:02:32;7.92;88.33
20862;DHT22;10591;52.532;13.348;2023-04-01T13:13:59;7.61;88.38
20862;DHT22;10591;52.532;13.348;2023-04-01T13:21:58;7.72;89.10
20862;DHT22;10591;52.532;13.348;2023-04-01T13:27:30;7.87;89.21
20862;DHT22;10591;52.532;13.348;2023-04-01T13:44:09;7.74;88.50
20862;DHT22;10591;52.532;13.348;2023-04-01T13:49:33;7.52;88.10
20862;DHT22;10591;52.532;13.348;2023-04-01T14:00:27;7.57;87.53
20862;DHT22;10591;52.532;13.348;2023-04-01T14:03:03;7.61;87.96
20862;DHT22;10591;52.532;13.348;2023-04-01T14:05:50;7.60;87.48
20862;DHT22;10591;52.532;13.348;2023-04-01T14:08:34;7.60;87.29
20862;DHT22;10591;52.532;13.348;2023-04-01T14:11:32;7.54;87.03
20862;DHT22;10591;52.532;13.348;2023-04-01T14:17:02;7.57;86.96
20862;DHT22;10591;52.532;13.348;2023-04-01T14:20:04;7.71;87.16
20862;DHT22;10591;52.532;13.348;2023-04-01T14:22:58;7.86;86.53
20862;DHT22;10591;52.532;13.348;2023-04-01T14:34:09;7.46;86.18
20862;DHT22;10591;52.532;13.348;2023-04-01T14:37:07;7.34;86.00
20862;DHT22;10591;52.532;13.348;2023-04-01T14:43:03;7.32;86.02
20862;DHT22;10591;52.532;13.348;2023-04-01T14:45:45;7.37;86.05
20862;DHT22;10591;52.532;13.348;2023-04-01T14:51:36;7.36;85.93
20862;DHT22;10591;52.532;13.348;2023-04-01T14:54:29;7.40;85.68
20862;DHT22;10591;52.532;13.348;2023-04-01T14:57:09;7.36;85.55
20862;DHT22;10591;52.532;13.348;2023-04-01T14:59:49;7.36;85.67
20862;DHT22;10591;52.532;13.348;2023-04-01T15:05:00;7.34;85.79
20862;DHT22;10591;52.532;13.348;2023-04-01T15:31:22;6.91;85.92
20862;DHT22;10591;52.532;13.348;2023-04-01T15:33:13;6.99;86.11
20862;DHT22;10591;52.532;13.348;2023-04-01T15:38:49;6.95;86.04
20862;DHT22;10591;52.532;13.348;2023-04-01T15:47:11;6.88;85.64
20862;DHT22;10591;52.532;13.348;2023-04-01T15:49:43;6.85;85.58
20862;DHT22;10591;52.532;13.348;2023-04-01T15:52:22;6.95;85.57
20862;DHT22;10591;52.532;13.348;2023-04-01T15:57:54;6.97;85.45
20862;DHT22;10591;52.532;13.348;2023-04-01T16:00:40;6.80;85.32
20862;DHT22;10591;52.532;13.348;2023-04-01T16:09:07;6.77;85.24
20862;DHT22;10591;52.532;13.348;2023-04-01T16:11:50;6.73;85.47
20862;DHT22;10591;52.532;13.348;2023-04-01T16:14:25;6.77;85.73
20862;DHT22;10591;52.532;13.348;2023-04-01T16:17:05;6.75;85.84
20862;DHT22;10591;52.532;13.348;2023-04-01T16:19:52;6.87;85.95
20862;DHT22;10591;52.532;13.348;2023-04-01T16:22:40;6.86;85.17
20862;DHT22;10591;52.532;13.348;2023-04-01T16:25:40;6.76;84.69
20862;DHT22;10591;52.532;13.348;2023-04-01T16:28:31;6.73;84.77
20862;DHT22;10591;52.532;13.348;2023-04-01T16:31:23;6.69;84.54
20862;DHT22;10591;52.532;13.348;2023-04-01T16:33:51;6.65;84.34
20862;DHT22;10591;52.532;13.348;2023-04-01T16:36:43;6.63;84.10
20862;DHT22;10591;52.532;13.348;2023-04-01T16:47:49;6.35;83.93
20862;DHT22;10591;52.532;13.348;2023-04-01T16:55:51;6.16;84.46
20862;DHT22;10591;52.532;13.348;2023-04-01T16:58:28;6.10;84.76
20862;DHT22;10591;52.532;13.348;2023-04-01T17:01:14;6.02;84.78
20862;DHT22;10591;52.532;13.348;2023-04-01T17:03:47;5.92;85.43
20862;DHT22;10591;52.532;13.348;2023-04-01T17:12:07;5.87;85.64
20862;DHT22;10591;52.532;13.348;2023-04-01T17:17:55;5.75;85.59
20862;DHT22;10591;52.532;13.348;2023-04-01T17:23:37;5.67;85.44
20862;DHT22;10591;52.532;13.348;2023-04-01T17:29:17;5.60;85.57
20862;DHT22;10591;52.532;13.348;2023-04-01T17:32:07;5.51;85.46
20862;DHT22;10591;52.532;13.348;2023-04-01T17:34:58;5.42;85.85
20862;DHT22;10591;52.532;13.348;2023-04-01T17:37:42;5.43;86.10
20862;DHT22;10591;52.532;13.348;2023-04-01T17:43:12;5.28;85.67
20862;DHT22;10591;52.532;13.348;2023-04-01T17:45:49;5.33;86.07
20862;DHT22;10591;52.532;13.348;2023-04-01T17:59:39;5.24;86.34
20862;DHT22;10591;52.532;13.348;2023-04-01T18:05:38;5.10;86.32
20862;DHT22;10591;52.532;13.348;2023-04-01T18:08:16;5.02;86.49
20862;DHT22;10591;52.532;13.348;2023-04-01T18:14:27;4.95;87.23
20862;DHT22;10591;52.532;13.348;2023-04-01T18:17:17;4.94;87.44
20862;DHT22;10591;52.532;13.348;2023-04-01T18:22:48;4.80;87.37
20862;DHT22;10591;52.532;13.348;2023-04-01T18:25:42;4.78;87.51
20862;DHT22;10591;52.532;13.348;2023-04-01T18:28:31;4.74;87.57
20862;DHT22;10591;52.532;13.348;2023-04-01T18:31:07;4.71;87.56
20862;DHT22;10591;52.532;13.348;2023-04-01T18:39:30;4.82;87.68
20862;DHT22;10591;52.532;13.348;2023-04-01T18:50:28;4.67;87.13
20862;DHT22;10591;52.532;13.348;2023-04-01T18:53:15;4.66;87.26
20862;DHT22;10591;52.532;13.348;2023-04-01T18:56:04;4.62;86.88
20862;DHT22;10591;52.532;13.348;2023-04-01T19:01:39;4.62;87.36
20862;DHT22;10591;52.532;13.348;2023-04-01T19:04:28;4.75;87.35
20862;DHT22;10591;52.532;13.348;2023-04-01T19:07:01;4.72;87.35
20862;DHT22;10591;52.532;13.348;2023-04-01T19:09:44;4.78;87.32
20862;DHT22;10591;52.532;13.348;2023-04-01T19:12:26;4.66;86.93
20862;DHT22;10591;52.532;13.348;2023-04-01T19:15:09;4.59;87.07
20862;DHT22;10591;52.532;13.348;2023-04-01T19:45:43;4.28;88.20
20862;DHT22;10591;52.532;13.348;2023-04-01T19:48:24;4.30;88.31
20862;DHT22;10591;52.532;13.348;2023-04-01T19:50:55;4.34;88.37
20862;DHT22;10591;52.532;13.348;2023-04-01T19:56:20;4.16;88.17
20862;DHT22;10591;52.532;13.348;2023-04-01T20:01:58;4.12;88.33
20862;DHT22;10591;52.532;13.348;2023-04-01T20:10:09;4.12;88.92
20862;DHT22;10591;52.532;13.348;2023-04-01T20:13:06;4.08;88.88
20862;DHT22;10591;52.532;13.348;2023-04-01T20:15:41;4.10;89.28
20862;DHT22;10591;52.532;13.348;2023-04-01T20:18:21;4.04;89.18
20862;DHT22;10591;52.532;13.348;2023-04-01T20:24:07;3.97;89.03
20862;DHT22;10591;52.532;13.348;2023-04-01T20:26:40;3.96;89.02
20862;DHT22;10591;52.532;13.348;2023-04-01T20:29:36;3.98;89.03
20862;DHT22;10591;52.532;13.348;2023-04-01T20:32:26;3.86;88.94
20862;DHT22;10591;52.532;13.348;2023-04-01T20:40:45;3.84;89.12
20862;DHT22;10591;52.532;13.348;2023-04-01T20:43:48;3.90;89.10
20862;DHT22;10591;52.532;13.348;2023-04-01T20:54:57;3.84;89.32
20862;DHT22;10591;52.532;13.348;2023-04-01T20:57:32;3.78;89.04
20862;DHT22;10591;52.532;13.348;2023-04-01T21:00:36;3.72;88.88
20862;DHT22;10591;52.532;13.348;2023-04-01T21:03:29;3.67;88.73
20862;DHT22;10591;52.532;13.348;2023-04-01T21:06:06;3.64;88.86
20862;DHT22;10591;52.532;13.348;2023-04-01T21:09:02;3.70;88.87
20862;DHT22;10591;52.532;13.348;2023-04-01T21:14:46;3.61;88.39
20862;DHT22;10591;52.532;13.348;2023-04-01T21:32:11;3.58;88.19
20862;DHT22;10591;52.532;13.348;2023-04-01T21:34:44;3.64;87.84
20862;DHT22;10591;52.532;13.348;2023-04-01T21:40:37;3.57;87.87
20862;DHT22;10591;52.532;13.348;2023-04-01T21:46:08;3.63;87.38
20862;DHT22;10591;52.532;13.348;2023-04-01T21:52:07;3.58;87.19
20862;DHT22;10591;52.532;13.348;2023-04-01T21:54:50;3.72;87.14
20862;DHT22;10591;52.532;13.348;2023-04-01T21:57:42;3.66;86.84
20862;DHT22;10591;52.532;13.348;2023-04-01T22:08:46;3.72;85.90
20862;DHT22;10591;52.532;13.348;2023-04-01T22:14:10;3.65;85.70
20862;DHT22;10591;52.532;13.348;2023-04-01T22:22:18;3.59;84.56
20862;DHT22;10591;52.532;13.348;2023-04-01T22:25:07;3.53;84.19
20862;DHT22;10591;52.532;13.348;2023-04-01T22:28:03;3.51;84.32
20862;DHT22;10591;52.532;13.348;2023-04-01T22:30:38;3.62;84.42
20862;DHT22;10591;52.532;13.348;2023-04-01T22:33:19;3.52;83.69
20862;DHT22;10591;52.532;13.348;2023-04-01T22:35:55;3.48;83.47
20862;DHT22;10591;52.532;13.348;2023-04-01T22:44:03;3.72;83.09
20862;DHT22;10591;52.532;13.348;2023-04-01T22:47:02;3.76;82.76
20862;DHT22;10591;52.532;13.348;2023-04-01T22:49:36;3.88;82.23
20862;DHT22;10591;52.532;13.348;2023-04-01T22:54:55;3.64;82.22
20862;DHT22;10591;52.532;13.348;2023-04-01T22:57:42;3.72;82.08
20862;DHT22;10591;52.532;13.348;2023-04-01T23:00:17;3.70;82.56
20862;DHT22;10591;52.532;13.348;2023-04-01T23:03:21;3.68;82.42
20862;DHT22;10591;52.532;13.348;2023-04-01T23:05:52;3.76;82.60
20862;DHT22;10591;52.532;13.348;2023-04-01T23:08:48;3.72;82.17
20862;DHT22;10591;52.532;13.348;2023-04-01T23:11:25;3.68;82.30
20862;DHT22;10591;52.532;13.348;2023-04-01T23:14:23;3.70;82.28
20862;DHT22;10591;52.532;13.348;2023-04-01T23:16:52;3.65;81.94
20862;DHT22;10591;52.532;13.348;2023-04-01T23:22:35;3.64;81.60
20862;DHT22;10591;52.532;13.348;2023-04-01T23:36:01;3.60;80.98
20862;DHT22;10591;52.532;13.348;2023-04-01T23:38:37;3.62;81.22
20862;DHT22;10591;52.532;13.348;2023-04-01T23:41:23;3.70;81.47
20862;DHT22;10591;52.532;13.348;2023-04-01T23:43:45;3.50;81.98
20862;DHT22;10591;52.532;13.348;2023-04-01T23:46:18;3.60;81.95
20862;DHT22;10591;52.532;13.348;2023-04-01T23:48:50;3.59;81.93
20862;DHT22;10591;52.532;13.348;2023-04-01T23:51:35;3.48;82.11
20862;DHT22;10591;52.532;13.348;2023-04-01T23:54:18;3.50;82.05
20862;DHT22;10591;52.532;13.348;2023-04-01T23:56:55;3.42;81.89
20862;DHT22;10591;52.532;13.348;2023-04-01T23:59:31;3.53;81.57
